• Join FlightAware (Why Join?)
  • Login
  • US Flag 
03:17PM EST


 

Airport Tracker/Info


-or-


 

Live Flight TrackerFlight Track Log ✈ TMC855 ✈ 24-Apr-2013 ✈ KATL - KSRQ

Flight Track Log - Related Links

Times and Time Zones

All times are in EDT time to prevent confusion due to time zone crossing. See the TMC855 flight status page for this flight to view local times or setup timezone preferences in your user account.

Time Position Orientation Groundspeed Altitude Reporting Facility
EDT Latitude Longitude Course Direction KTS MPH feet Rate Location/Type
04:42PM 33.6333 -84.4833 270° West 219 252 4,300  Level Atlanta TRACON
04:43PM 33.6333 -84.5667 270° West 254 292 7,700 1,800 Climbing Atlanta TRACON
04:45PM 33.5628 -84.7044 238° Southwest 236 272 10,000 720 Climbing Atlanta Center
04:46PM 33.4836 -84.6914 172° South 263 303 10,000 240 Level Atlanta Center
04:47PM 33.3939 -84.6808 174° South 299 344 10,500 1,800 Climbing Atlanta Center
04:48PM 33.3147 -84.6353 154° Southeast 315 362 13,600 3,060 Climbing Atlanta Center
04:49PM 33.2336 -84.5878 154° Southeast 323 372 16,700 2,520 Climbing Atlanta Center
04:50PM 33.1442 -84.5325 153° Southeast 323 372 18,700 1,860 Climbing Atlanta Center
04:51PM 33.0567 -84.4800 153° Southeast 323 372 20,500 1,800 Climbing Atlanta Center
04:52PM 32.9628 -84.4350 158° South 350 403 22,400 1,920 Climbing Atlanta Center
04:53PM 32.8564 -84.4197 173° South 373 429 24,400 1,920 Climbing Atlanta Center
04:54PM 32.7606 -84.4192 180° South 386 444 26,300 2,220 Climbing Atlanta Center
04:55PM 32.6519 -84.4189 180° South 386 444 28,900 2,580 Climbing Atlanta Center
04:56PM 32.5475 -84.4133 177° South 381 438 31,500 2,520 Climbing Atlanta Center
04:57PM 32.4494 -84.4156 181° South 375 432 34,000 1,800 Climbing Atlanta Center
04:58PM 32.3533 -84.4053 175° South 357 411 35,100 1,020 Climbing Atlanta Center
04:59PM 32.2553 -84.4097 182° South 347 399 36,100 900 Climbing Atlanta Center
05:00PM 32.1511 -84.4069 179° South 352 405 37,000 600 Climbing Atlanta Center
05:00PM 32.0886 -84.4056 179° South 364 419 37,000  Level Jacksonville Center
05:01PM 31.9989 -84.4042 179° South 386 444 37,000  Level Jacksonville Center
05:02PM 31.8861 -84.4022 179° South 391 450 37,000  Level Jacksonville Center
05:03PM 31.7714 -84.4003 179° South 405 466 37,000  Level Jacksonville Center
05:04PM 31.6564 -84.3983 179° South 410 472 37,000  Level Jacksonville Center
05:05PM 31.5375 -84.3942 178° South 421 484 37,000  Level Jacksonville Center
05:06PM 31.4206 -84.3922 179° South 421 484 37,000  Level Jacksonville Center
05:07PM 31.3039 -84.3903 179° South 421 484 37,000  Level Jacksonville Center
05:08PM 31.1889 -84.3886 179° South 421 484 37,000  Level Jacksonville Center
05:09PM 31.0719 -84.3842 178° South 421 484 37,000  Level Jacksonville Center
05:10PM 30.9572 -84.3847 180° South 421 484 37,000  Level Jacksonville Center
05:11PM 30.8403 -84.3806 178° South 421 484 37,000  Level Jacksonville Center
05:12PM 30.7214 -84.3786 179° South 421 484 37,000  Level Jacksonville Center
05:13PM 30.6067 -84.3744 178° South 421 484 37,000  Level Jacksonville Center
05:14PM 30.4922 -84.3294 161° South 421 484 37,000  Level Jacksonville Center
05:15PM 30.3803 -84.2578 151° Southeast 435 501 37,000  Level Jacksonville Center
05:16PM 30.2600 -84.1817 151° Southeast 440 506 37,000  Level Jacksonville Center
05:17PM 30.1500 -84.1081 150° Southeast 446 513 37,000  Level Jacksonville Center
05:18PM 30.0358 -84.0369 152° Southeast 456 525 37,000 -120 Level Jacksonville Center
05:19PM 29.9239 -83.9639 151° Southeast 456 525 36,800 -780 Descending Jacksonville Center
05:20PM 29.8219 -83.8956 150° Southeast 456 525 35,500 -1,500 Descending Jacksonville Center
05:21PM 29.7097 -83.8253 151° Southeast 456 525 33,900 -1,260 Descending Jacksonville Center
05:22PM 29.5997 -83.7547 151° Southeast 456 525 33,000 -600 Descending Jacksonville Center
05:23PM 29.4917 -83.6847 151° Southeast 451 519 32,700 -780 Descending Jacksonville Center
05:24PM 29.3833 -83.6147 151° Southeast 451 519 31,500 -1,620 Descending Jacksonville Center
05:25PM 29.2772 -83.5544 154° Southeast 446 513 29,500 -1,980 Descending Jacksonville Center
05:26PM 29.1669 -83.4942 154° Southeast 440 506 27,600 -1,800 Descending Jacksonville Center
05:27PM 29.0628 -83.4389 155° Southeast 429 494 26,000 -1,560 Descending Jacksonville Center
05:28PM 28.9628 -83.3839 154° Southeast 409 471 24,500 -1,500 Descending Jacksonville Center
05:29PM 28.8669 -83.3336 155° Southeast 395 455 23,000 -1,500 Descending Jacksonville Center
05:30PM 28.7775 -83.2858 155° Southeast 379 436 21,600 -1,500 Descending Jacksonville Center
05:31PM 28.6900 -83.2381 154° Southeast 359 413 20,100 -2,040 Descending Jacksonville Center
05:33PM 28.5333 -83.1500 154° Southeast 375 432 16,400 -2,340 Descending Tampa TRACON
05:34PM 28.4333 -83.1000 156° South 380 437 14,200 -1,800 Descending Tampa TRACON
05:35PM 28.3333 -83.0500 156° South 375 432 12,800 -1,200 Descending Tampa TRACON
05:36PM 28.2500 -83.0000 152° Southeast 359 413 11,800 -900 Descending Tampa TRACON
05:37PM 28.1500 -82.9667 164° South 359 413 11,000 -600 Descending Tampa TRACON
05:38PM 28.0667 -82.9500 170° South 354 407 10,600 -780 Descending Tampa TRACON
05:39PM 27.9667 -82.9167 164° South 301 346 9,400 -1,260 Descending Tampa TRACON
05:40PM 27.9000 -82.9000 168° South 284 327 8,000 -1,440 Descending Tampa TRACON
05:41PM 27.8167 -82.9000 180° South 274 315 6,600 -1,020 Descending Tampa TRACON
05:42PM 27.7500 -82.8667 156° South 276 318 6,000 -300 Descending Tampa TRACON
05:43PM 27.7000 -82.8000 130° Southeast 281 323 6,000  Level Tampa TRACON
05:44PM 27.6333 -82.7333 138° Southeast 275 316 6,000  Level Tampa TRACON
05:45PM 27.5833 -82.6833 138° Southeast 263 303 6,000 -240 Level Tampa TRACON
05:46PM 27.5333 -82.6333 138° Southeast 236 272 5,600 -900 Descending Tampa TRACON
05:47PM 27.5000 -82.5833 127° Southeast 215 247 4,300 -840 Descending Tampa TRACON
05:48PM 27.4667 -82.5500 138° Southeast 198 228 4,000 -600 Descending Tampa TRACON
05:49PM 27.4333 -82.4833 119° Southeast 198 228 3,200 -900 Descending Tampa TRACON
05:50PM 27.4000 -82.4500 138° Southeast 200 230 2,200 -840 Descending Tampa TRACON
05:51PM 27.3667 -82.4833 222° Southwest 174 200 1,700 -780 Descending Tampa TRACON
05:52PM 27.3667 -82.5333 270° West 138 159 800 -900 Descending Tampa TRACON
05:54PM 27.3833 -82.5500 318° Northwest  Level FlightAware Approximate
06:01PM 27.3954 -82.5544 318° Northwest  Level Estimated
06:02PM 27.3954 -82.5544 318° Northwest  Level Estimated